createdAt,value
2019-05-12T00:00:18.260Z,0.00
2019-05-12T00:01:18.530Z,0.00
2019-05-12T00:02:17.764Z,0.00
2019-05-12T00:03:15.703Z,0.00
2019-05-12T00:04:15.662Z,0.00
2019-05-12T00:05:18.176Z,0.00
2019-05-12T00:06:17.528Z,0.00
2019-05-12T00:07:17.893Z,0.00
2019-05-12T00:08:15.501Z,0.00
2019-05-12T00:09:15.474Z,0.00
2019-05-12T00:10:17.599Z,0.00
2019-05-12T00:11:15.373Z,0.00
2019-05-12T00:12:15.336Z,0.00
2019-05-12T00:13:15.293Z,0.00
2019-05-12T00:14:17.636Z,0.00
2019-05-12T00:15:15.212Z,0.00
2019-05-12T00:16:15.171Z,0.00
2019-05-12T00:17:15.126Z,0.00
2019-05-12T00:18:15.082Z,0.00
2019-05-12T00:19:15.045Z,0.00
2019-05-12T00:20:15.007Z,0.00
2019-05-12T00:21:14.961Z,0.00
2019-05-12T00:22:14.917Z,0.00
2019-05-12T00:23:26.587Z,0.00
2019-05-12T00:24:14.838Z,0.00
2019-05-12T00:25:14.797Z,0.00
2019-05-12T00:26:14.757Z,0.00
2019-05-12T00:27:14.716Z,0.00
2019-05-12T00:28:14.675Z,0.00
2019-05-12T00:29:14.637Z,0.00
2019-05-12T00:30:14.585Z,0.00
2019-05-12T00:31:14.544Z,0.00
2019-05-12T00:32:14.505Z,0.00
2019-05-12T00:33:14.468Z,0.00
2019-05-12T00:34:14.425Z,0.00
2019-05-12T00:35:14.379Z,0.00
2019-05-12T00:36:14.339Z,0.00
2019-05-12T00:37:14.300Z,0.00
2019-05-12T00:38:14.259Z,0.00
2019-05-12T00:39:14.218Z,0.00
2019-05-12T00:40:14.175Z,0.00
2019-05-12T00:41:14.132Z,0.00
2019-05-12T00:42:14.088Z,0.00
2019-05-12T00:43:14.046Z,0.00
2019-05-12T00:44:14.007Z,0.00
2019-05-12T00:45:13.969Z,0.00
2019-05-12T00:46:13.928Z,0.00
2019-05-12T00:47:13.886Z,0.00
2019-05-12T00:48:13.844Z,0.00
2019-05-12T00:49:13.800Z,0.00
2019-05-12T00:50:13.762Z,0.00
2019-05-12T00:51:13.720Z,0.00
2019-05-12T00:52:13.676Z,0.00
2019-05-12T00:53:13.633Z,0.00
2019-05-12T00:54:13.589Z,0.00
2019-05-12T00:55:13.576Z,0.00
2019-05-12T00:56:13.510Z,0.00
2019-05-12T00:57:13.471Z,0.00
2019-05-12T00:58:13.428Z,0.00
2019-05-12T00:59:13.386Z,0.00
2019-05-12T01:00:13.347Z,0.00
2019-05-12T01:01:13.308Z,0.00
2019-05-12T01:02:13.256Z,0.00
2019-05-12T01:03:13.216Z,0.00
2019-05-12T01:04:13.175Z,0.00
2019-05-12T01:05:13.135Z,0.00
2019-05-12T01:06:13.095Z,0.00
2019-05-12T01:07:13.048Z,0.00
2019-05-12T01:08:13.011Z,0.00
2019-05-12T01:09:12.969Z,0.00
2019-05-12T01:10:12.943Z,0.00
2019-05-12T01:11:12.887Z,0.00
2019-05-12T01:12:12.845Z,0.00
2019-05-12T01:13:12.800Z,0.00
2019-05-12T01:14:12.755Z,0.00
2019-05-12T01:15:12.717Z,0.00
2019-05-12T01:16:12.677Z,0.00
2019-05-12T01:17:12.636Z,0.00
2019-05-12T01:18:12.595Z,0.00
2019-05-12T01:19:12.553Z,0.00
2019-05-12T01:20:12.509Z,0.00
2019-05-12T01:21:12.467Z,0.00
2019-05-12T01:22:12.422Z,0.00
2019-05-12T01:23:12.384Z,0.00
2019-05-12T01:24:12.349Z,0.00
2019-05-12T01:25:12.300Z,0.00
2019-05-12T01:26:12.256Z,0.00
2019-05-12T01:27:12.216Z,0.00
2019-05-12T01:28:12.175Z,0.00
2019-05-12T01:29:12.139Z,0.00
2019-05-12T01:30:12.094Z,0.00
2019-05-12T01:31:12.050Z,0.00
2019-05-12T01:32:12.007Z,0.00
2019-05-12T01:33:11.968Z,0.00
2019-05-12T01:34:11.926Z,0.00
2019-05-12T01:35:11.888Z,0.00
2019-05-12T01:36:11.843Z,0.00
2019-05-12T01:37:11.799Z,0.00
2019-05-12T01:38:11.758Z,0.00
2019-05-12T01:39:11.720Z,0.00
2019-05-12T01:40:11.675Z,0.00
2019-05-12T01:41:11.632Z,0.00
2019-05-12T01:42:11.588Z,0.00
2019-05-12T01:43:11.546Z,0.00
2019-05-12T01:44:11.507Z,0.00
2019-05-12T01:45:11.467Z,0.00
2019-05-12T01:46:11.426Z,0.00
2019-05-12T01:47:11.385Z,0.00
2019-05-12T01:48:11.342Z,0.00
2019-05-12T01:49:11.299Z,0.00
2019-05-12T01:50:11.259Z,0.00
2019-05-12T01:51:11.212Z,0.00
2019-05-12T01:52:11.173Z,0.00
2019-05-12T01:53:11.133Z,0.00
2019-05-12T01:54:14.860Z,0.00
2019-05-12T01:55:11.050Z,0.00
2019-05-12T01:56:11.007Z,0.00
2019-05-12T01:57:10.966Z,0.00
2019-05-12T01:58:10.929Z,0.00
2019-05-12T01:59:10.884Z,0.00
2019-05-12T02:00:10.842Z,0.00
2019-05-12T02:01:10.797Z,0.00
2019-05-12T02:02:10.752Z,0.00
2019-05-12T02:03:10.714Z,0.00
2019-05-12T02:04:10.694Z,0.00
2019-05-12T02:05:10.632Z,0.00
2019-05-12T02:06:10.591Z,0.00
2019-05-12T02:07:10.550Z,0.00
2019-05-12T02:08:10.511Z,0.00
2019-05-12T02:09:10.463Z,0.00
2019-05-12T02:10:10.420Z,0.00
2019-05-12T02:11:10.383Z,0.00
2019-05-12T02:12:10.338Z,0.00
2019-05-12T02:13:10.296Z,0.00
2019-05-12T02:14:10.252Z,0.00
2019-05-12T02:15:10.210Z,0.00
2019-05-12T02:16:10.171Z,0.00
2019-05-12T02:17:10.133Z,0.00
2019-05-12T02:18:10.089Z,0.00
2019-05-12T02:19:10.049Z,0.00
2019-05-12T02:20:10.005Z,0.00
2019-05-12T02:21:09.961Z,0.00
2019-05-12T02:22:09.916Z,0.00
2019-05-12T02:23:09.891Z,0.00
2019-05-12T02:24:23.458Z,0.00
2019-05-12T02:25:09.795Z,0.00
2019-05-12T02:26:09.757Z,0.00
2019-05-12T02:27:09.707Z,0.00
2019-05-12T02:28:09.732Z,0.00
2019-05-12T02:29:09.627Z,0.00
2019-05-12T02:30:10.266Z,0.00
2019-05-12T02:31:09.750Z,0.00
2019-05-12T02:32:09.503Z,0.00
2019-05-12T02:33:09.459Z,0.00
2019-05-12T02:34:09.442Z,0.00
2019-05-12T02:35:09.373Z,0.00
2019-05-12T02:36:09.333Z,0.00
2019-05-12T02:37:09.295Z,0.00
2019-05-12T02:38:09.254Z,0.00
2019-05-12T02:39:09.211Z,0.00
2019-05-12T02:40:09.168Z,0.00
2019-05-12T02:41:09.122Z,0.00
2019-05-12T02:42:09.080Z,0.00
2019-05-12T02:43:09.042Z,0.00
2019-05-12T02:44:09.003Z,0.00
2019-05-12T02:45:08.998Z,0.00
2019-05-12T02:46:08.919Z,0.00
2019-05-12T02:47:08.874Z,0.00
2019-05-12T02:48:08.833Z,0.00
2019-05-12T02:49:08.790Z,0.00
2019-05-12T02:50:08.750Z,0.00
2019-05-12T02:51:08.708Z,0.00
2019-05-12T02:52:08.664Z,0.00
2019-05-12T02:53:08.634Z,0.00
2019-05-12T02:54:08.575Z,0.00
2019-05-12T02:55:08.541Z,0.00
2019-05-12T02:56:08.495Z,0.00
2019-05-12T02:57:08.454Z,0.00
2019-05-12T02:58:08.423Z,0.00
2019-05-12T02:59:08.366Z,0.00
2019-05-12T03:00:08.330Z,0.00
2019-05-12T03:01:08.301Z,0.00
2019-05-12T03:02:08.253Z,0.00
2019-05-12T03:03:08.250Z,0.00
2019-05-12T03:04:08.164Z,0.00
2019-05-12T03:05:08.123Z,0.00
2019-05-12T03:06:08.073Z,0.00
2019-05-12T03:07:08.032Z,0.00
2019-05-12T03:08:07.995Z,0.00
2019-05-12T03:09:07.951Z,0.00
2019-05-12T03:10:07.910Z,0.00
2019-05-12T03:11:07.871Z,0.00
2019-05-12T03:12:07.825Z,0.00
2019-05-12T03:13:07.782Z,0.00
2019-05-12T03:14:07.739Z,0.00
2019-05-12T03:15:07.701Z,0.00
2019-05-12T03:16:07.665Z,0.00
2019-05-12T03:17:07.638Z,0.00
2019-05-12T03:18:07.687Z,0.00
2019-05-12T03:19:07.529Z,0.00
2019-05-12T03:20:07.488Z,0.00
2019-05-12T03:21:07.448Z,0.00
2019-05-12T03:22:07.408Z,0.00
2019-05-12T03:37:17.857Z,8.00
2019-05-12T03:38:14.762Z,8.00
2019-05-12T03:39:15.014Z,12.00
2019-05-12T03:40:14.498Z,12.00
2019-05-12T03:41:14.662Z,12.00
2019-05-12T03:42:14.537Z,12.00
2019-05-12T03:43:14.524Z,16.00
2019-05-12T03:44:15.109Z,16.00
2019-05-12T03:45:14.919Z,20.00
2019-05-12T03:46:15.202Z,24.00
2019-05-12T03:47:14.487Z,24.00
2019-05-12T03:48:14.904Z,28.00
2019-05-12T03:49:15.331Z,32.00
2019-05-12T03:50:14.774Z,32.00
2019-05-12T03:51:15.496Z,32.00
2019-05-12T03:52:15.285Z,36.00
2019-05-12T03:53:15.667Z,40.00
2019-05-12T03:54:15.235Z,40.00
2019-05-12T03:55:30.320Z,44.00
2019-05-12T03:56:15.113Z,48.00
2019-05-12T03:57:15.013Z,56.00
2019-05-12T03:58:15.346Z,60.00
2019-05-12T03:59:15.022Z,68.00
2019-05-12T04:00:15.765Z,72.00
2019-05-12T04:01:15.024Z,80.00
2019-05-12T04:02:15.069Z,84.00
2019-05-12T04:03:15.381Z,92.00
2019-05-12T04:04:15.325Z,96.00
2019-05-12T04:05:15.540Z,96.00
2019-05-12T04:06:15.349Z,96.00
2019-05-12T04:07:14.988Z,100.00
2019-05-12T04:08:15.357Z,100.00
2019-05-12T04:09:15.422Z,104.00
2019-05-12T04:10:14.777Z,108.00
2019-05-12T04:11:14.587Z,112.00
2019-05-12T04:12:14.843Z,124.00
2019-05-12T04:13:15.091Z,128.00
2019-05-12T04:14:14.846Z,132.00
2019-05-12T04:15:15.206Z,132.00
2019-05-12T04:16:12.299Z,140.00
2019-05-12T04:17:14.778Z,152.00
2019-05-12T04:18:15.497Z,164.00
2019-05-12T04:19:14.632Z,176.00
2019-05-12T04:20:14.922Z,180.00
2019-05-12T04:21:15.268Z,188.00
2019-05-12T04:22:15.148Z,208.00
2019-05-12T04:23:14.966Z,236.00
2019-05-12T04:24:14.311Z,244.00
2019-05-12T04:25:14.570Z,232.00
2019-05-12T04:26:16.493Z,232.00
2019-05-12T04:27:14.818Z,236.00
2019-05-12T04:28:14.742Z,244.00
2019-05-12T04:29:15.147Z,252.00
2019-05-12T04:30:14.428Z,260.00
2019-05-12T04:31:11.672Z,288.00
2019-05-12T04:32:14.174Z,308.00
2019-05-12T04:33:15.084Z,324.00
2019-05-12T04:34:14.709Z,324.00
2019-05-12T04:35:14.533Z,316.00
2019-05-12T04:36:14.577Z,316.00
2019-05-12T04:37:14.556Z,312.00
2019-05-12T04:38:14.740Z,316.00
2019-05-12T04:39:14.430Z,332.00
2019-05-12T04:40:14.690Z,352.00
2019-05-12T04:41:14.389Z,376.00
2019-05-12T04:42:14.692Z,400.00
2019-05-12T04:43:14.296Z,428.00
2019-05-12T04:44:14.840Z,452.00
2019-05-12T04:45:11.088Z,476.00
2019-05-12T04:46:14.065Z,512.00
2019-05-12T04:47:11.004Z,548.00
2019-05-12T04:48:10.957Z,592.00
2019-05-12T04:49:10.916Z,620.00
2019-05-12T04:50:10.886Z,640.00
2019-05-12T04:51:10.836Z,668.00
2019-05-12T04:52:10.793Z,700.00
2019-05-12T04:53:10.748Z,704.00
2019-05-12T04:54:10.708Z,692.00
2019-05-12T04:55:10.662Z,712.00
2019-05-12T04:56:16.786Z,744.00
2019-05-12T04:57:10.583Z,788.00
2019-05-12T04:58:10.579Z,848.00
2019-05-12T04:59:10.502Z,884.00
2019-05-12T05:00:10.458Z,928.00
2019-05-12T05:01:10.416Z,968.00
2019-05-12T05:02:10.374Z,996.00
2019-05-12T05:03:10.332Z,988.00
2019-05-12T05:04:10.293Z,984.00
2019-05-12T05:05:10.250Z,988.00
2019-05-12T05:06:10.207Z,1008.00
2019-05-12T05:07:10.162Z,1012.00
2019-05-12T05:08:10.126Z,1000.00
2019-05-12T05:09:10.083Z,1036.00
2019-05-12T05:10:10.041Z,1096.00
2019-05-12T05:11:10.012Z,1116.00
2019-05-12T05:12:09.956Z,1124.00
2019-05-12T05:13:09.914Z,1152.00
2019-05-12T05:14:09.875Z,1144.00
2019-05-12T05:15:09.831Z,1132.00
2019-05-12T05:16:09.793Z,1168.00
2019-05-12T05:18:43.803Z,1116.00
2019-05-12T05:19:43.995Z,1108.00
2019-05-12T05:20:43.589Z,1120.00
2019-05-12T05:21:43.649Z,1120.00
2019-05-12T05:22:43.800Z,1124.00
2019-05-12T05:23:44.075Z,1128.00
2019-05-12T05:24:41.559Z,1124.00
2019-05-12T05:25:43.391Z,1136.00
2019-05-12T05:26:43.443Z,1176.00
2019-05-12T05:27:41.437Z,1176.00
2019-05-12T05:28:43.471Z,1188.00
2019-05-12T05:29:43.676Z,1228.00
2019-05-12T05:30:41.306Z,1292.00
2019-05-12T05:31:41.264Z,1364.00
2019-05-12T05:32:41.223Z,1364.00
2019-05-12T05:33:43.299Z,1340.00
2019-05-12T05:34:46.260Z,1392.00
2019-05-12T05:35:41.106Z,1452.00
2019-05-12T05:36:43.198Z,1508.00
2019-05-12T05:37:43.557Z,1500.00
2019-05-12T05:38:43.520Z,1528.00
2019-05-12T05:39:47.565Z,1572.00
2019-05-12T05:40:40.890Z,1548.00
2019-05-12T05:41:46.496Z,1468.00
2019-05-12T05:42:40.815Z,1500.00
2019-05-12T05:43:40.765Z,1544.00
2019-05-12T05:44:40.726Z,1560.00
2019-05-12T05:45:40.686Z,1496.00
2019-05-12T05:46:47.746Z,1460.00
2019-05-12T05:47:40.604Z,1464.00
2019-05-12T05:48:40.560Z,1420.00
2019-05-12T05:49:40.528Z,1372.00
2019-05-12T05:50:40.472Z,1372.00
2019-05-12T05:51:46.718Z,1380.00
2019-05-12T05:52:40.395Z,1396.00
2019-05-12T05:53:40.352Z,1444.00
2019-05-12T05:54:40.312Z,1500.00
2019-05-12T05:55:40.273Z,1536.00
2019-05-12T05:56:43.216Z,1596.00
2019-05-12T05:57:40.186Z,1680.00
2019-05-12T05:58:45.467Z,1624.00
2019-05-12T05:59:40.110Z,1604.00
2019-05-12T06:00:40.062Z,1648.00
2019-05-12T06:01:45.163Z,1704.00
2019-05-12T06:02:40.653Z,1768.00
2019-05-12T06:03:39.934Z,1820.00
2019-05-12T06:04:44.429Z,1824.00
2019-05-12T06:05:39.854Z,1848.00
2019-05-12T06:06:42.722Z,1860.00
2019-05-12T06:07:39.775Z,1880.00
2019-05-12T06:08:39.732Z,1904.00
2019-05-12T06:09:39.685Z,1904.00
2019-05-12T06:10:40.611Z,1852.00
2019-05-12T06:11:39.607Z,1796.00
2019-05-12T06:12:40.361Z,1752.00
2019-05-12T06:13:40.274Z,1744.00
2019-05-12T06:14:40.942Z,1748.00
2019-05-12T06:15:40.909Z,1816.00
2019-05-12T06:16:39.400Z,1908.00
2019-05-12T06:17:39.363Z,2012.00
2019-05-12T06:18:39.317Z,2100.00
2019-05-12T06:19:39.276Z,2180.00
2019-05-12T06:20:39.235Z,2156.00
2019-05-12T06:21:39.190Z,2136.00
2019-05-12T06:22:39.153Z,2096.00
2019-05-12T06:23:39.352Z,2056.00
2019-05-12T06:24:39.092Z,2060.00
2019-05-12T06:25:49.349Z,2132.00
2019-05-12T06:26:52.891Z,2312.00
2019-05-12T06:27:38.946Z,2472.00
2019-05-12T06:28:41.166Z,2592.00
2019-05-12T06:29:38.860Z,2752.00
2019-05-12T06:30:44.472Z,2884.00
2019-05-12T06:31:38.782Z,2992.00
2019-05-12T06:32:41.163Z,2912.00
2019-05-12T06:33:38.695Z,2972.00
2019-05-12T06:34:38.658Z,3048.00
2019-05-12T06:35:42.263Z,3084.00
2019-05-12T06:36:38.571Z,5180.00
2019-05-12T06:37:38.536Z,3512.00
2019-05-12T06:38:40.478Z,4000.00
2019-05-12T06:39:38.455Z,3320.00
2019-05-12T06:40:40.993Z,3316.00
2019-05-12T06:41:38.373Z,3164.00
2019-05-12T06:42:38.328Z,2972.00
2019-05-12T06:43:39.610Z,2868.00
2019-05-12T06:44:38.244Z,2856.00
2019-05-12T06:45:42.499Z,2896.00
2019-05-12T06:46:38.195Z,2960.00
2019-05-12T06:47:39.393Z,3024.00
2019-05-12T06:48:41.861Z,3092.00
2019-05-12T06:49:38.045Z,3228.00
2019-05-12T06:50:39.351Z,3368.00
2019-05-12T06:51:37.961Z,3388.00
2019-05-12T06:52:38.733Z,3324.00
2019-05-12T06:53:37.875Z,3300.00
2019-05-12T06:54:44.566Z,3380.00
2019-05-12T06:55:39.299Z,3504.00
2019-05-12T06:56:37.751Z,3480.00
2019-05-12T06:57:40.016Z,3468.00
2019-05-12T06:58:37.676Z,3448.00
2019-05-12T06:59:41.954Z,3364.00
2019-05-12T07:00:37.593Z,3332.00
2019-05-12T07:01:37.549Z,3364.00
2019-05-12T07:02:49.195Z,3396.00
2019-05-12T07:03:37.485Z,3536.00
2019-05-12T07:04:41.200Z,3660.00
2019-05-12T07:05:38.562Z,3684.00
2019-05-12T07:06:37.348Z,3796.00
2019-05-12T07:07:41.863Z,3952.00
2019-05-12T07:08:38.543Z,4136.00
2019-05-12T07:09:50.085Z,3892.00
2019-05-12T07:10:43.575Z,3768.00
2019-05-12T07:11:44.961Z,3764.00
2019-05-12T07:12:54.091Z,3796.00
2019-05-12T07:13:37.059Z,3864.00
2019-05-12T07:14:37.019Z,3952.00
2019-05-12T07:15:40.412Z,4036.00
2019-05-12T07:16:36.936Z,4024.00
2019-05-12T07:17:43.932Z,3912.00
2019-05-12T07:18:37.184Z,3860.00
2019-05-12T07:19:36.818Z,3924.00
2019-05-12T07:20:38.918Z,4020.00
2019-05-12T07:21:36.740Z,4104.00
2019-05-12T07:22:43.723Z,4144.00
2019-05-12T07:23:36.658Z,4100.00
2019-05-12T07:24:40.852Z,4036.00
2019-05-12T07:25:36.948Z,3944.00
2019-05-12T07:26:47.949Z,3956.00
2019-05-12T07:28:40.442Z,4080.00
2019-05-12T07:29:40.506Z,4144.00
2019-05-12T07:32:44.918Z,4820.00
2019-05-12T07:33:41.401Z,4596.00
2019-05-12T07:34:43.765Z,4776.00
2019-05-12T07:36:28.384Z,4532.00
2019-05-12T07:37:29.982Z,4716.00
2019-05-12T07:38:27.855Z,5168.00
2019-05-12T07:39:44.530Z,7416.00
2019-05-12T07:41:50.394Z,5476.00
2019-05-12T07:42:38.919Z,5828.00
2019-05-12T07:43:33.729Z,5844.00
2019-05-12T07:44:39.772Z,5620.00
2019-05-12T07:45:33.538Z,6132.00
2019-05-12T07:46:34.055Z,5372.00
2019-05-12T07:47:33.149Z,7944.00
2019-05-12T07:48:33.357Z,5100.00
2019-05-12T07:49:36.723Z,5048.00
2019-05-12T07:50:31.489Z,4932.00
2019-05-12T07:51:38.399Z,4732.00
2019-05-12T07:52:33.627Z,6168.00
2019-05-12T07:53:33.733Z,4456.00
2019-05-12T07:54:35.352Z,4544.00
2019-05-12T07:55:33.779Z,4664.00
2019-05-12T07:56:35.241Z,7376.00
2019-05-12T07:57:34.499Z,6976.00
2019-05-12T07:58:33.190Z,5152.00
2019-05-12T07:59:38.982Z,7532.00
2019-05-12T08:00:33.756Z,7576.00
2019-05-12T08:01:35.761Z,5168.00
2019-05-12T08:02:31.917Z,5700.00
2019-05-12T08:03:30.963Z,5248.00
2019-05-12T08:04:31.594Z,7240.00
2019-05-12T08:05:33.501Z,6620.00
2019-05-12T08:06:32.635Z,6816.00
2019-05-12T08:07:30.809Z,6556.00
2019-05-12T08:08:30.761Z,6360.00
2019-05-12T08:09:32.240Z,3940.00
2019-05-12T08:10:30.685Z,3924.00
2019-05-12T08:11:34.661Z,3796.00
2019-05-12T08:12:30.611Z,3568.00
2019-05-12T08:13:31.194Z,3508.00
2019-05-12T08:14:30.529Z,3464.00
2019-05-12T08:15:30.486Z,3396.00
2019-05-12T08:16:33.624Z,3432.00
2019-05-12T08:17:30.404Z,3656.00
2019-05-12T08:18:35.666Z,3860.00
2019-05-12T08:19:30.331Z,3992.00
2019-05-12T08:20:30.292Z,4016.00
2019-05-12T08:21:34.930Z,4092.00
2019-05-12T08:22:30.208Z,4104.00
2019-05-12T08:23:30.168Z,4024.00
2019-05-12T08:24:36.952Z,3936.00
2019-05-12T08:25:30.096Z,3948.00
2019-05-12T08:26:30.051Z,3840.00
2019-05-12T08:27:30.007Z,3728.00
2019-05-12T08:28:35.869Z,3680.00
2019-05-12T08:29:29.926Z,3816.00
2019-05-12T08:30:29.888Z,3908.00
2019-05-12T08:31:33.155Z,4016.00
2019-05-12T08:32:29.813Z,4112.00
2019-05-12T08:33:29.772Z,4136.00
2019-05-12T08:34:29.730Z,4164.00
2019-05-12T08:35:34.720Z,4224.00
2019-05-12T08:36:29.649Z,4284.00
2019-05-12T08:37:29.615Z,4384.00
2019-05-12T08:38:29.572Z,4704.00
2019-05-12T08:39:29.528Z,4776.00
2019-05-12T08:40:29.487Z,4688.00
2019-05-12T08:41:29.447Z,4844.00
2019-05-12T08:42:29.409Z,4956.00
2019-05-12T08:43:29.371Z,4960.00
2019-05-12T08:44:33.491Z,4892.00
2019-05-12T08:45:33.959Z,4556.00
2019-05-12T08:46:29.251Z,4200.00
2019-05-12T08:47:34.385Z,4060.00
2019-05-12T08:48:29.167Z,3892.00
2019-05-12T08:49:34.116Z,3656.00
2019-05-12T08:50:31.525Z,3564.00
2019-05-12T08:51:29.052Z,3572.00
2019-05-12T08:52:30.684Z,3628.00
2019-05-12T08:53:28.968Z,4572.00
2019-05-12T08:54:28.932Z,5468.00
2019-05-12T08:55:31.271Z,5336.00
2019-05-12T08:56:28.856Z,5244.00
2019-05-12T08:57:34.819Z,5360.00
2019-05-12T08:58:33.456Z,5804.00
2019-05-12T08:59:28.840Z,5712.00
2019-05-12T09:00:28.693Z,6608.00
2019-05-12T09:01:30.731Z,6764.00
2019-05-12T09:02:28.612Z,6784.00
2019-05-12T09:03:30.561Z,4936.00
2019-05-12T09:04:28.536Z,4484.00
2019-05-12T09:05:34.528Z,4292.00
2019-05-12T09:06:28.457Z,4100.00
2019-05-12T09:07:30.221Z,3964.00
2019-05-12T09:08:28.372Z,4000.00
2019-05-12T09:09:28.340Z,3932.00
2019-05-12T09:10:28.297Z,4020.00
2019-05-12T09:11:28.258Z,4224.00
2019-05-12T09:12:28.218Z,4228.00
2019-05-12T09:13:28.179Z,4028.00
2019-05-12T09:14:28.138Z,3944.00
2019-05-12T09:15:28.100Z,3732.00
2019-05-12T09:16:28.082Z,3552.00
2019-05-12T09:17:28.026Z,3544.00
2019-05-12T09:18:33.515Z,3888.00
2019-05-12T09:19:27.940Z,4416.00
2019-05-12T09:20:27.904Z,4780.00
2019-05-12T09:21:31.625Z,4844.00
2019-05-12T09:22:27.822Z,4900.00
2019-05-12T09:23:32.742Z,5232.00
2019-05-12T09:24:27.748Z,7020.00
2019-05-12T09:25:27.701Z,6044.00
2019-05-12T09:26:28.496Z,4620.00
2019-05-12T09:27:27.628Z,5192.00
2019-05-12T09:28:27.614Z,4148.00
2019-05-12T09:29:27.550Z,3812.00
2019-05-12T09:30:27.510Z,3452.00
2019-05-12T09:31:29.530Z,3264.00
2019-05-12T09:32:27.425Z,3292.00
2019-05-12T09:33:31.662Z,3488.00
2019-05-12T09:34:27.414Z,3700.00
2019-05-12T09:35:28.594Z,3864.00
2019-05-12T09:36:27.276Z,4124.00
2019-05-12T09:37:31.035Z,4568.00
2019-05-12T09:50:46.178Z,4808.00
2019-05-12T09:53:50.768Z,4568.00
2019-05-12T09:54:47.734Z,4560.00
2019-05-12T09:55:47.385Z,4520.00
2019-05-12T09:56:49.940Z,4512.00
2019-05-12T09:57:47.308Z,4720.00
2019-05-12T09:58:58.238Z,4696.00
2019-05-12T09:59:57.268Z,4700.00
2019-05-12T10:00:47.174Z,4600.00
2019-05-12T10:01:47.135Z,4532.00
2019-05-12T10:02:51.063Z,4432.00
2019-05-12T10:03:47.055Z,4356.00
2019-05-12T10:04:50.260Z,4316.00
2019-05-12T10:05:46.974Z,4224.00
2019-05-12T10:06:46.933Z,4168.00
2019-05-12T10:07:46.895Z,6052.00
2019-05-12T10:08:46.854Z,4124.00
2019-05-12T10:09:49.181Z,3948.00
2019-05-12T10:10:47.176Z,5416.00
2019-05-12T10:11:53.836Z,5672.00
2019-05-12T10:12:50.541Z,5684.00
2019-05-12T10:13:46.653Z,5648.00
2019-05-12T10:14:47.250Z,5496.00
2019-05-12T10:15:46.575Z,5560.00
2019-05-12T10:16:49.695Z,3968.00
2019-05-12T10:17:46.495Z,4076.00
2019-05-12T10:18:51.209Z,5568.00
2019-05-12T10:19:48.348Z,5444.00
2019-05-12T10:20:46.377Z,5384.00
2019-05-12T10:21:49.051Z,5332.00
2019-05-12T10:22:46.304Z,5208.00
2019-05-12T10:23:46.255Z,4860.00
2019-05-12T10:24:55.272Z,5128.00
2019-05-12T10:25:46.180Z,5180.00
2019-05-12T10:26:49.364Z,5220.00
2019-05-12T10:27:46.109Z,5300.00
2019-05-12T10:28:52.037Z,5376.00
2019-05-12T10:29:46.024Z,5364.00
2019-05-12T10:30:47.261Z,5380.00
2019-05-12T10:31:45.950Z,5376.00
2019-05-12T10:32:45.908Z,5324.00
2019-05-12T10:33:49.023Z,5288.00
2019-05-12T10:34:45.824Z,5312.00
2019-05-12T10:35:45.791Z,5480.00
2019-05-12T10:36:48.944Z,5732.00
2019-05-12T10:37:47.278Z,6104.00
2019-05-12T10:38:45.670Z,6428.00
2019-05-12T10:39:45.637Z,4900.00
2019-05-12T10:40:48.218Z,5364.00
2019-05-12T10:41:45.557Z,5368.00
2019-05-12T10:42:49.331Z,6676.00
2019-05-12T10:43:48.400Z,6592.00
2019-05-12T10:44:45.439Z,5620.00
2019-05-12T10:45:45.401Z,5644.00
2019-05-12T10:46:45.362Z,5204.00
2019-05-12T10:47:45.328Z,4976.00
2019-05-12T10:48:45.286Z,4932.00
2019-05-12T10:49:45.248Z,4872.00
2019-05-12T10:50:45.210Z,4792.00
2019-05-12T10:51:47.456Z,5004.00
2019-05-12T10:52:45.133Z,5012.00
2019-05-12T10:53:48.727Z,5368.00
2019-05-12T10:54:45.056Z,6796.00
2019-05-12T10:55:45.013Z,4568.00
2019-05-12T10:56:44.975Z,4272.00
2019-05-12T10:57:47.262Z,3880.00
2019-05-12T10:58:44.896Z,3744.00
2019-05-12T10:59:48.486Z,4804.00
2019-05-12T11:00:44.822Z,3660.00
2019-05-12T11:01:48.844Z,5292.00
2019-05-12T11:02:44.759Z,5296.00
2019-05-12T11:03:50.833Z,5308.00
2019-05-12T11:04:44.666Z,5420.00
2019-05-12T11:05:44.629Z,5600.00
2019-05-12T11:06:48.364Z,5844.00
2019-05-12T11:07:44.558Z,6152.00
2019-05-12T11:08:47.301Z,6500.00
2019-05-12T11:09:44.474Z,6700.00
2019-05-12T11:10:44.450Z,4896.00
2019-05-12T11:11:46.937Z,4960.00
2019-05-12T11:12:44.359Z,4348.00
2019-05-12T11:13:46.216Z,3960.00
2019-05-12T11:14:44.281Z,3720.00
2019-05-12T11:15:46.112Z,3468.00
2019-05-12T11:16:44.630Z,4396.00
2019-05-12T11:17:45.974Z,3844.00
2019-05-12T11:18:44.127Z,5244.00
2019-05-12T11:19:47.070Z,5132.00
2019-05-12T11:20:45.063Z,5052.00
2019-05-12T11:21:44.324Z,4988.00
2019-05-12T11:22:43.984Z,5016.00
2019-05-12T11:23:43.935Z,4976.00
2019-05-12T11:24:44.452Z,4952.00
2019-05-12T11:25:44.054Z,4972.00
2019-05-12T11:26:43.822Z,5100.00
2019-05-12T11:27:43.837Z,5120.00
2019-05-12T11:28:43.743Z,5316.00
2019-05-12T11:29:49.171Z,5424.00
2019-05-12T11:30:43.828Z,5364.00
2019-05-12T11:31:44.102Z,3180.00
2019-05-12T11:32:44.165Z,3388.00
2019-05-12T11:33:43.659Z,5212.00
2019-05-12T11:34:44.321Z,5136.00
2019-05-12T11:35:43.629Z,5060.00
2019-05-12T11:36:43.756Z,5048.00
2019-05-12T11:37:43.419Z,5116.00
2019-05-12T11:38:44.346Z,5200.00
2019-05-12T11:39:45.228Z,5296.00
2019-05-12T11:40:43.775Z,5432.00
2019-05-12T11:41:44.250Z,5696.00
2019-05-12T11:42:46.839Z,4980.00
2019-05-12T11:43:43.173Z,6320.00
2019-05-12T11:44:44.322Z,6308.00
2019-05-12T11:45:44.210Z,6308.00
2019-05-12T11:46:44.101Z,6288.00
2019-05-12T11:47:44.656Z,6240.00
2019-05-12T11:48:46.404Z,5424.00
2019-05-12T11:49:44.172Z,3524.00
2019-05-12T11:50:49.466Z,3348.00
2019-05-12T11:51:42.869Z,3400.00
2019-05-12T11:52:46.011Z,3416.00
2019-05-12T11:53:44.503Z,3476.00
2019-05-12T11:54:47.249Z,5668.00
2019-05-12T11:55:43.817Z,5576.00
2019-05-12T11:56:46.637Z,5588.00
2019-05-12T11:57:43.781Z,5680.00
2019-05-12T11:58:47.370Z,5824.00
2019-05-12T11:59:43.475Z,6036.00
2019-05-12T12:00:44.091Z,6164.00
2019-05-12T12:01:47.449Z,6152.00
2019-05-12T12:02:43.745Z,6160.00
2019-05-12T12:03:44.054Z,6388.00
2019-05-12T12:04:43.516Z,4492.00
2019-05-12T12:05:44.169Z,4500.00
2019-05-12T12:06:43.875Z,6468.00
2019-05-12T12:07:50.552Z,5900.00
2019-05-12T12:08:44.030Z,6224.00
2019-05-12T12:09:43.816Z,5632.00
2019-05-12T12:10:42.139Z,4396.00
2019-05-12T12:11:43.343Z,6328.00
2019-05-12T12:12:45.243Z,4420.00
2019-05-12T12:13:42.030Z,6388.00
2019-05-12T12:14:48.423Z,4184.00
2019-05-12T12:15:41.957Z,4272.00
2019-05-12T12:16:49.799Z,4460.00
2019-05-12T12:17:44.025Z,4100.00
2019-05-12T12:18:48.624Z,4004.00
2019-05-12T12:19:46.698Z,3824.00
2019-05-12T12:20:44.102Z,3676.00
2019-05-12T12:21:46.125Z,3592.00
2019-05-12T12:22:43.443Z,3652.00
2019-05-12T12:23:47.302Z,5456.00
2019-05-12T12:24:43.519Z,4572.00
2019-05-12T12:25:42.959Z,5600.00
2019-05-12T12:26:41.541Z,5580.00
2019-05-12T12:27:41.496Z,5576.00
2019-05-12T12:28:43.419Z,5672.00
2019-05-12T12:29:43.720Z,5796.00
2019-05-12T12:30:41.388Z,5844.00
2019-05-12T12:31:43.334Z,5792.00
2019-05-12T12:32:41.310Z,5812.00
2019-05-12T12:33:46.481Z,5828.00
2019-05-12T12:34:41.231Z,5880.00
2019-05-12T12:35:41.200Z,5980.00
2019-05-12T12:36:43.477Z,4968.00
2019-05-12T12:37:41.125Z,4092.00
2019-05-12T12:38:41.085Z,4568.00
2019-05-12T12:39:43.328Z,4780.00
2019-05-12T12:40:41.007Z,3488.00
2019-05-12T12:41:45.706Z,3476.00
2019-05-12T12:42:46.260Z,3428.00
2019-05-12T12:43:43.169Z,3536.00
2019-05-12T12:44:40.858Z,3716.00
2019-05-12T12:45:41.406Z,5308.00
2019-05-12T12:46:40.777Z,5236.00
2019-05-12T12:47:44.404Z,5160.00
2019-05-12T12:48:40.708Z,5184.00
2019-05-12T12:49:45.271Z,5284.00
2019-05-12T12:50:40.633Z,5492.00
2019-05-12T12:51:40.589Z,5720.00
2019-05-12T12:52:44.839Z,5928.00
2019-05-12T12:53:40.515Z,6108.00
2019-05-12T12:54:40.482Z,6352.00
2019-05-12T12:55:43.382Z,6580.00
2019-05-12T12:56:40.404Z,6608.00
2019-05-12T12:57:45.117Z,6596.00
2019-05-12T12:58:40.333Z,5720.00
2019-05-12T12:59:45.475Z,6664.00
2019-05-12T13:00:47.173Z,6720.00
2019-05-12T13:01:40.216Z,4688.00